sensor_id;sensor_type;location;lat;lon;timestamp;P1;durP1;ratioP1;P2;durP2;ratioP2
22026;SDS011;11177;50.966;10.070;2024-01-30T00:02:17;14.88;;;8.55;;
22026;SDS011;11177;50.966;10.070;2024-01-30T00:04:44;15.43;;;8.52;;
22026;SDS011;11177;50.966;10.070;2024-01-30T00:07:12;15.52;;;9.02;;
22026;SDS011;11177;50.966;10.070;2024-01-30T00:09:40;14.70;;;8.20;;
22026;SDS011;11177;50.966;10.070;2024-01-30T00:12:07;12.70;;;7.75;;
22026;SDS011;11177;50.966;10.070;2024-01-30T00:14:34;15.63;;;8.27;;
22026;SDS011;11177;50.966;10.070;2024-01-30T00:17:02;11.50;;;7.70;;
22026;SDS011;11177;50.966;10.070;2024-01-30T00:19:28;14.23;;;7.88;;
22026;SDS011;11177;50.966;10.070;2024-01-30T00:21:56;12.73;;;7.88;;
22026;SDS011;11177;50.966;10.070;2024-01-30T00:24:23;14.68;;;8.13;;
22026;SDS011;11177;50.966;10.070;2024-01-30T00:26:51;16.67;;;7.97;;
22026;SDS011;11177;50.966;10.070;2024-01-30T00:29:19;13.00;;;7.10;;
22026;SDS011;11177;50.966;10.070;2024-01-30T00:31:46;14.07;;;8.23;;
22026;SDS011;11177;50.966;10.070;2024-01-30T00:34:14;14.85;;;8.65;;
22026;SDS011;11177;50.966;10.070;2024-01-30T00:36:41;17.55;;;8.80;;
22026;SDS011;11177;50.966;10.070;2024-01-30T00:39:08;14.90;;;8.60;;
22026;SDS011;11177;50.966;10.070;2024-01-30T00:41:36;14.57;;;8.13;;
22026;SDS011;11177;50.966;10.070;2024-01-30T00:44:03;14.77;;;8.70;;
22026;SDS011;11177;50.966;10.070;2024-01-30T00:46:31;15.48;;;9.23;;
22026;SDS011;11177;50.966;10.070;2024-01-30T00:48:58;17.83;;;9.68;;
22026;SDS011;11177;50.966;10.070;2024-01-30T00:51:25;18.13;;;9.27;;
22026;SDS011;11177;50.966;10.070;2024-01-30T00:53:53;15.52;;;9.52;;
22026;SDS011;11177;50.966;10.070;2024-01-30T00:56:20;17.45;;;9.57;;
22026;SDS011;11177;50.966;10.070;2024-01-30T00:58:47;14.15;;;9.27;;
22026;SDS011;11177;50.966;10.070;2024-01-30T01:01:14;15.65;;;8.65;;
22026;SDS011;11177;50.966;10.070;2024-01-30T01:03:43;15.27;;;8.77;;
22026;SDS011;11177;50.966;10.070;2024-01-30T01:06:13;16.27;;;8.82;;
22026;SDS011;11177;50.966;10.070;2024-01-30T01:08:45;16.33;;;9.02;;
22026;SDS011;11177;50.966;10.070;2024-01-30T01:11:16;16.45;;;9.10;;
22026;SDS011;11177;50.966;10.070;2024-01-30T01:13:43;15.38;;;8.18;;
22026;SDS011;11177;50.966;10.070;2024-01-30T01:16:12;13.18;;;8.02;;
22026;SDS011;11177;50.966;10.070;2024-01-30T01:18:40;15.02;;;8.55;;
22026;SDS011;11177;50.966;10.070;2024-01-30T01:21:07;17.00;;;8.63;;
22026;SDS011;11177;50.966;10.070;2024-01-30T01:23:35;15.80;;;8.80;;
22026;SDS011;11177;50.966;10.070;2024-01-30T01:26:02;18.58;;;9.85;;
22026;SDS011;11177;50.966;10.070;2024-01-30T01:28:29;18.23;;;9.63;;
22026;SDS011;11177;50.966;10.070;2024-01-30T01:30:57;17.40;;;9.70;;
22026;SDS011;11177;50.966;10.070;2024-01-30T01:33:32;14.82;;;9.32;;
22026;SDS011;11177;50.966;10.070;2024-01-30T01:36:00;16.25;;;9.68;;
22026;SDS011;11177;50.966;10.070;2024-01-30T01:38:30;18.85;;;10.00;;
22026;SDS011;11177;50.966;10.070;2024-01-30T01:40:59;16.15;;;8.95;;
22026;SDS011;11177;50.966;10.070;2024-01-30T01:43:27;15.80;;;9.20;;
22026;SDS011;11177;50.966;10.070;2024-01-30T01:45:55;17.20;;;10.20;;
22026;SDS011;11177;50.966;10.070;2024-01-30T01:48:26;15.77;;;8.80;;
22026;SDS011;11177;50.966;10.070;2024-01-30T01:50:55;15.13;;;9.40;;
22026;SDS011;11177;50.966;10.070;2024-01-30T01:53:25;17.52;;;9.70;;
22026;SDS011;11177;50.966;10.070;2024-01-30T01:55:53;15.40;;;9.10;;
22026;SDS011;11177;50.966;10.070;2024-01-30T01:58:20;17.08;;;9.30;;
22026;SDS011;11177;50.966;10.070;2024-01-30T02:00:49;14.15;;;8.93;;
22026;SDS011;11177;50.966;10.070;2024-01-30T02:03:19;14.93;;;9.10;;
22026;SDS011;11177;50.966;10.070;2024-01-30T02:05:50;14.18;;;8.63;;
22026;SDS011;11177;50.966;10.070;2024-01-30T02:08:18;17.02;;;9.18;;
22026;SDS011;11177;50.966;10.070;2024-01-30T02:10:47;16.17;;;8.60;;
22026;SDS011;11177;50.966;10.070;2024-01-30T02:13:14;16.48;;;8.32;;
22026;SDS011;11177;50.966;10.070;2024-01-30T02:15:41;16.55;;;9.38;;
22026;SDS011;11177;50.966;10.070;2024-01-30T02:18:09;14.32;;;9.00;;
22026;SDS011;11177;50.966;10.070;2024-01-30T02:20:36;17.13;;;9.52;;
22026;SDS011;11177;50.966;10.070;2024-01-30T02:23:05;16.08;;;8.95;;
22026;SDS011;11177;50.966;10.070;2024-01-30T02:25:38;18.55;;;9.13;;
22026;SDS011;11177;50.966;10.070;2024-01-30T02:28:15;18.00;;;9.43;;
22026;SDS011;11177;50.966;10.070;2024-01-30T02:30:43;15.98;;;8.73;;
22026;SDS011;11177;50.966;10.070;2024-01-30T02:33:10;17.38;;;9.50;;
22026;SDS011;11177;50.966;10.070;2024-01-30T02:35:37;18.50;;;8.90;;
22026;SDS011;11177;50.966;10.070;2024-01-30T02:38:05;14.75;;;8.77;;
22026;SDS011;11177;50.966;10.070;2024-01-30T02:40:32;16.48;;;9.35;;
22026;SDS011;11177;50.966;10.070;2024-01-30T02:43:01;15.52;;;8.55;;
22026;SDS011;11177;50.966;10.070;2024-01-30T02:45:28;15.32;;;9.43;;
22026;SDS011;11177;50.966;10.070;2024-01-30T02:47:55;16.08;;;9.43;;
22026;SDS011;11177;50.966;10.070;2024-01-30T02:50:26;16.35;;;9.32;;
22026;SDS011;11177;50.966;10.070;2024-01-30T02:52:53;15.13;;;9.15;;
22026;SDS011;11177;50.966;10.070;2024-01-30T02:55:20;15.13;;;9.20;;
22026;SDS011;11177;50.966;10.070;2024-01-30T02:57:47;15.52;;;9.30;;
22026;SDS011;11177;50.966;10.070;2024-01-30T03:00:15;14.32;;;8.93;;
22026;SDS011;11177;50.966;10.070;2024-01-30T03:02:42;15.32;;;9.10;;
22026;SDS011;11177;50.966;10.070;2024-01-30T03:05:10;18.10;;;9.27;;
22026;SDS011;11177;50.966;10.070;2024-01-30T03:07:37;16.08;;;9.25;;
22026;SDS011;11177;50.966;10.070;2024-01-30T03:10:05;15.60;;;8.95;;
22026;SDS011;11177;50.966;10.070;2024-01-30T03:12:33;15.70;;;8.68;;
22026;SDS011;11177;50.966;10.070;2024-01-30T03:15:00;18.10;;;8.50;;
22026;SDS011;11177;50.966;10.070;2024-01-30T03:17:27;16.38;;;8.68;;
22026;SDS011;11177;50.966;10.070;2024-01-30T03:19:54;16.10;;;8.40;;
22026;SDS011;11177;50.966;10.070;2024-01-30T03:22:22;16.52;;;9.13;;
22026;SDS011;11177;50.966;10.070;2024-01-30T03:24:49;16.77;;;8.52;;
22026;SDS011;11177;50.966;10.070;2024-01-30T03:27:16;14.15;;;8.05;;
22026;SDS011;11177;50.966;10.070;2024-01-30T03:29:43;16.27;;;9.15;;
22026;SDS011;11177;50.966;10.070;2024-01-30T03:32:11;14.27;;;8.40;;
22026;SDS011;11177;50.966;10.070;2024-01-30T03:34:38;13.35;;;8.45;;
22026;SDS011;11177;50.966;10.070;2024-01-30T03:37:05;15.80;;;8.98;;
22026;SDS011;11177;50.966;10.070;2024-01-30T03:39:32;16.48;;;8.70;;
22026;SDS011;11177;50.966;10.070;2024-01-30T03:42:00;18.23;;;8.88;;
22026;SDS011;11177;50.966;10.070;2024-01-30T03:44:28;15.18;;;9.07;;
22026;SDS011;11177;50.966;10.070;2024-01-30T03:46:54;15.70;;;8.93;;
22026;SDS011;11177;50.966;10.070;2024-01-30T03:49:21;17.73;;;8.98;;
22026;SDS011;11177;50.966;10.070;2024-01-30T03:51:49;16.17;;;8.90;;
22026;SDS011;11177;50.966;10.070;2024-01-30T03:54:16;16.15;;;8.55;;
22026;SDS011;11177;50.966;10.070;2024-01-30T03:56:43;14.85;;;8.95;;
22026;SDS011;11177;50.966;10.070;2024-01-30T03:59:11;15.80;;;8.90;;
22026;SDS011;11177;50.966;10.070;2024-01-30T04:01:39;15.70;;;9.02;;
22026;SDS011;11177;50.966;10.070;2024-01-30T04:04:06;12.15;;;7.93;;
22026;SDS011;11177;50.966;10.070;2024-01-30T04:06:34;14.88;;;8.30;;
22026;SDS011;11177;50.966;10.070;2024-01-30T04:09:04;15.68;;;8.55;;
22026;SDS011;11177;50.966;10.070;2024-01-30T04:11:32;15.52;;;8.63;;
22026;SDS011;11177;50.966;10.070;2024-01-30T04:13:58;13.73;;;7.72;;
22026;SDS011;11177;50.966;10.070;2024-01-30T04:16:26;15.30;;;8.18;;
22026;SDS011;11177;50.966;10.070;2024-01-30T04:18:53;15.30;;;8.38;;
22026;SDS011;11177;50.966;10.070;2024-01-30T04:21:21;14.52;;;8.07;;
22026;SDS011;11177;50.966;10.070;2024-01-30T04:23:50;13.68;;;7.60;;
22026;SDS011;11177;50.966;10.070;2024-01-30T04:26:25;12.93;;;7.18;;
22026;SDS011;11177;50.966;10.070;2024-01-30T04:28:54;14.57;;;7.75;;
22026;SDS011;11177;50.966;10.070;2024-01-30T04:31:22;11.35;;;7.20;;
22026;SDS011;11177;50.966;10.070;2024-01-30T04:33:49;11.60;;;7.15;;
22026;SDS011;11177;50.966;10.070;2024-01-30T04:36:16;12.45;;;7.50;;
22026;SDS011;11177;50.966;10.070;2024-01-30T04:38:43;13.70;;;7.22;;
22026;SDS011;11177;50.966;10.070;2024-01-30T04:41:10;13.35;;;7.30;;
22026;SDS011;11177;50.966;10.070;2024-01-30T04:43:38;14.50;;;7.32;;
22026;SDS011;11177;50.966;10.070;2024-01-30T04:46:05;13.80;;;7.43;;
22026;SDS011;11177;50.966;10.070;2024-01-30T04:48:32;11.98;;;6.82;;
22026;SDS011;11177;50.966;10.070;2024-01-30T04:50:59;12.18;;;7.15;;
22026;SDS011;11177;50.966;10.070;2024-01-30T04:53:30;14.05;;;7.20;;
22026;SDS011;11177;50.966;10.070;2024-01-30T04:55:57;13.02;;;7.57;;
22026;SDS011;11177;50.966;10.070;2024-01-30T04:58:26;15.00;;;7.72;;
22026;SDS011;11177;50.966;10.070;2024-01-30T05:00:54;11.82;;;7.45;;
22026;SDS011;11177;50.966;10.070;2024-01-30T05:03:24;15.35;;;7.22;;
22026;SDS011;11177;50.966;10.070;2024-01-30T05:05:54;14.70;;;6.90;;
22026;SDS011;11177;50.966;10.070;2024-01-30T05:08:22;13.20;;;7.13;;
22026;SDS011;11177;50.966;10.070;2024-01-30T05:10:50;15.00;;;8.05;;
22026;SDS011;11177;50.966;10.070;2024-01-30T05:13:21;17.20;;;8.30;;
22026;SDS011;11177;50.966;10.070;2024-01-30T05:15:53;12.23;;;6.97;;
22026;SDS011;11177;50.966;10.070;2024-01-30T05:18:21;17.85;;;7.72;;
22026;SDS011;11177;50.966;10.070;2024-01-30T05:20:52;14.98;;;7.72;;
22026;SDS011;11177;50.966;10.070;2024-01-30T05:23:22;13.23;;;7.60;;
22026;SDS011;11177;50.966;10.070;2024-01-30T05:25:52;16.50;;;8.07;;
22026;SDS011;11177;50.966;10.070;2024-01-30T05:28:20;17.70;;;9.23;;
22026;SDS011;11177;50.966;10.070;2024-01-30T05:30:48;15.65;;;9.02;;
22026;SDS011;11177;50.966;10.070;2024-01-30T05:33:16;18.08;;;9.82;;
22026;SDS011;11177;50.966;10.070;2024-01-30T05:35:45;26.30;;;11.73;;
22026;SDS011;11177;50.966;10.070;2024-01-30T05:38:14;21.88;;;9.82;;
22026;SDS011;11177;50.966;10.070;2024-01-30T05:40:44;26.52;;;12.32;;
22026;SDS011;11177;50.966;10.070;2024-01-30T05:43:12;20.92;;;11.63;;
22026;SDS011;11177;50.966;10.070;2024-01-30T05:45:42;21.48;;;11.55;;
22026;SDS011;11177;50.966;10.070;2024-01-30T05:48:12;22.95;;;10.52;;
22026;SDS011;11177;50.966;10.070;2024-01-30T05:50:42;20.52;;;10.52;;
22026;SDS011;11177;50.966;10.070;2024-01-30T05:53:10;18.88;;;10.43;;
22026;SDS011;11177;50.966;10.070;2024-01-30T05:55:43;25.02;;;12.82;;
22026;SDS011;11177;50.966;10.070;2024-01-30T05:58:12;22.15;;;10.27;;
22026;SDS011;11177;50.966;10.070;2024-01-30T06:00:43;21.38;;;11.45;;
22026;SDS011;11177;50.966;10.070;2024-01-30T06:03:14;22.77;;;10.90;;
22026;SDS011;11177;50.966;10.070;2024-01-30T06:05:42;21.42;;;10.88;;
22026;SDS011;11177;50.966;10.070;2024-01-30T06:08:14;20.52;;;11.32;;
22026;SDS011;11177;50.966;10.070;2024-01-30T06:10:44;20.55;;;11.43;;
22026;SDS011;11177;50.966;10.070;2024-01-30T06:13:11;19.92;;;11.07;;
22026;SDS011;11177;50.966;10.070;2024-01-30T06:15:39;21.00;;;11.20;;
22026;SDS011;11177;50.966;10.070;2024-01-30T06:18:12;18.15;;;10.80;;
22026;SDS011;11177;50.966;10.070;2024-01-30T06:20:41;19.95;;;11.23;;
22026;SDS011;11177;50.966;10.070;2024-01-30T06:23:09;19.10;;;10.73;;
22026;SDS011;11177;50.966;10.070;2024-01-30T06:25:39;20.55;;;10.95;;
22026;SDS011;11177;50.966;10.070;2024-01-30T06:28:07;18.52;;;10.40;;
22026;SDS011;11177;50.966;10.070;2024-01-30T06:30:35;19.35;;;10.55;;
22026;SDS011;11177;50.966;10.070;2024-01-30T06:33:02;20.27;;;11.20;;
22026;SDS011;11177;50.966;10.070;2024-01-30T06:35:29;21.67;;;10.70;;
22026;SDS011;11177;50.966;10.070;2024-01-30T06:37:56;20.38;;;11.13;;
22026;SDS011;11177;50.966;10.070;2024-01-30T06:40:26;19.27;;;10.82;;
22026;SDS011;11177;50.966;10.070;2024-01-30T06:42:56;20.20;;;10.38;;
22026;SDS011;11177;50.966;10.070;2024-01-30T06:45:37;17.92;;;9.77;;
22026;SDS011;11177;50.966;10.070;2024-01-30T06:48:10;17.77;;;10.15;;
22026;SDS011;11177;50.966;10.070;2024-01-30T06:50:42;18.58;;;9.93;;
22026;SDS011;11177;50.966;10.070;2024-01-30T06:53:09;18.98;;;10.60;;
22026;SDS011;11177;50.966;10.070;2024-01-30T06:55:36;17.77;;;10.02;;
22026;SDS011;11177;50.966;10.070;2024-01-30T06:58:03;22.25;;;10.65;;
22026;SDS011;11177;50.966;10.070;2024-01-30T07:00:31;17.77;;;9.80;;
22026;SDS011;11177;50.966;10.070;2024-01-30T07:03:01;21.58;;;10.35;;
22026;SDS011;11177;50.966;10.070;2024-01-30T07:05:29;22.10;;;10.02;;
22026;SDS011;11177;50.966;10.070;2024-01-30T07:08:04;19.25;;;10.13;;
22026;SDS011;11177;50.966;10.070;2024-01-30T07:10:35;21.40;;;11.80;;
22026;SDS011;11177;50.966;10.070;2024-01-30T07:13:03;22.95;;;11.85;;
22026;SDS011;11177;50.966;10.070;2024-01-30T07:15:32;27.67;;;12.70;;
22026;SDS011;11177;50.966;10.070;2024-01-30T07:17:59;24.33;;;11.30;;
22026;SDS011;11177;50.966;10.070;2024-01-30T07:20:28;25.92;;;13.20;;
22026;SDS011;11177;50.966;10.070;2024-01-30T07:22:57;25.85;;;13.48;;
22026;SDS011;11177;50.966;10.070;2024-01-30T07:25:25;24.77;;;13.32;;
22026;SDS011;11177;50.966;10.070;2024-01-30T07:27:57;26.02;;;13.30;;
22026;SDS011;11177;50.966;10.070;2024-01-30T07:30:24;22.67;;;12.57;;
22026;SDS011;11177;50.966;10.070;2024-01-30T07:32:52;24.23;;;12.88;;
22026;SDS011;11177;50.966;10.070;2024-01-30T07:35:19;25.92;;;13.20;;
22026;SDS011;11177;50.966;10.070;2024-01-30T07:37:47;25.23;;;12.75;;
22026;SDS011;11177;50.966;10.070;2024-01-30T07:40:14;21.80;;;13.13;;
22026;SDS011;11177;50.966;10.070;2024-01-30T07:42:42;23.77;;;13.80;;
22026;SDS011;11177;50.966;10.070;2024-01-30T07:45:09;32.08;;;16.67;;
22026;SDS011;11177;50.966;10.070;2024-01-30T07:47:37;34.13;;;18.08;;
22026;SDS011;11177;50.966;10.070;2024-01-30T07:50:05;35.38;;;20.85;;
22026;SDS011;11177;50.966;10.070;2024-01-30T07:52:33;34.15;;;19.63;;
22026;SDS011;11177;50.966;10.070;2024-01-30T07:55:01;36.53;;;20.08;;
22026;SDS011;11177;50.966;10.070;2024-01-30T07:57:31;30.70;;;17.98;;
22026;SDS011;11177;50.966;10.070;2024-01-30T08:00:00;40.65;;;18.00;;
22026;SDS011;11177;50.966;10.070;2024-01-30T08:02:29;30.90;;;16.85;;
22026;SDS011;11177;50.966;10.070;2024-01-30T08:04:56;29.15;;;16.75;;
22026;SDS011;11177;50.966;10.070;2024-01-30T08:07:24;32.78;;;18.15;;
22026;SDS011;11177;50.966;10.070;2024-01-30T08:09:52;35.00;;;17.85;;
22026;SDS011;11177;50.966;10.070;2024-01-30T08:12:20;32.03;;;17.58;;
22026;SDS011;11177;50.966;10.070;2024-01-30T08:14:47;29.92;;;18.25;;
22026;SDS011;11177;50.966;10.070;2024-01-30T08:17:13;32.40;;;18.67;;
22026;SDS011;11177;50.966;10.070;2024-01-30T08:19:41;34.70;;;19.48;;
22026;SDS011;11177;50.966;10.070;2024-01-30T08:22:13;32.42;;;18.35;;
22026;SDS011;11177;50.966;10.070;2024-01-30T08:24:41;32.80;;;17.73;;
22026;SDS011;11177;50.966;10.070;2024-01-30T08:27:11;32.97;;;17.63;;
22026;SDS011;11177;50.966;10.070;2024-01-30T08:29:42;29.42;;;16.92;;
22026;SDS011;11177;50.966;10.070;2024-01-30T08:32:12;32.65;;;17.98;;
22026;SDS011;11177;50.966;10.070;2024-01-30T08:34:44;34.50;;;17.92;;
22026;SDS011;11177;50.966;10.070;2024-01-30T08:37:13;28.35;;;18.00;;
22026;SDS011;11177;50.966;10.070;2024-01-30T08:39:43;29.88;;;18.00;;
22026;SDS011;11177;50.966;10.070;2024-01-30T08:42:12;33.65;;;19.00;;
22026;SDS011;11177;50.966;10.070;2024-01-30T08:44:41;35.95;;;19.02;;
22026;SDS011;11177;50.966;10.070;2024-01-30T08:47:09;32.90;;;18.90;;
22026;SDS011;11177;50.966;10.070;2024-01-30T08:49:36;41.10;;;24.05;;
22026;SDS011;11177;50.966;10.070;2024-01-30T08:52:03;44.28;;;25.70;;
22026;SDS011;11177;50.966;10.070;2024-01-30T08:54:30;54.25;;;31.33;;
22026;SDS011;11177;50.966;10.070;2024-01-30T08:57:01;51.55;;;30.65;;
22026;SDS011;11177;50.966;10.070;2024-01-30T08:59:28;54.65;;;31.75;;
22026;SDS011;11177;50.966;10.070;2024-01-30T09:01:56;58.67;;;32.70;;
22026;SDS011;11177;50.966;10.070;2024-01-30T09:04:37;54.92;;;31.77;;
22026;SDS011;11177;50.966;10.070;2024-01-30T09:07:05;46.38;;;24.55;;
22026;SDS011;11177;50.966;10.070;2024-01-30T09:09:37;31.95;;;16.85;;
22026;SDS011;11177;50.966;10.070;2024-01-30T09:12:06;32.95;;;17.60;;
22026;SDS011;11177;50.966;10.070;2024-01-30T09:14:37;33.33;;;17.90;;
22026;SDS011;11177;50.966;10.070;2024-01-30T09:17:07;31.65;;;19.23;;
22026;SDS011;11177;50.966;10.070;2024-01-30T09:19:35;29.17;;;17.73;;
22026;SDS011;11177;50.966;10.070;2024-01-30T09:22:02;34.03;;;19.02;;
22026;SDS011;11177;50.966;10.070;2024-01-30T09:24:30;35.55;;;19.73;;
22026;SDS011;11177;50.966;10.070;2024-01-30T09:26:58;38.03;;;20.05;;
22026;SDS011;11177;50.966;10.070;2024-01-30T09:29:25;34.17;;;17.85;;
22026;SDS011;11177;50.966;10.070;2024-01-30T09:31:52;35.35;;;18.90;;
22026;SDS011;11177;50.966;10.070;2024-01-30T09:34:23;32.13;;;18.80;;
22026;SDS011;11177;50.966;10.070;2024-01-30T09:36:50;35.60;;;19.20;;
22026;SDS011;11177;50.966;10.070;2024-01-30T09:39:17;32.22;;;18.85;;
22026;SDS011;11177;50.966;10.070;2024-01-30T09:41:53;32.50;;;19.00;;
22026;SDS011;11177;50.966;10.070;2024-01-30T09:44:30;33.53;;;18.92;;
22026;SDS011;11177;50.966;10.070;2024-01-30T09:46:57;32.40;;;18.83;;
22026;SDS011;11177;50.966;10.070;2024-01-30T09:49:34;33.25;;;18.73;;
22026;SDS011;11177;50.966;10.070;2024-01-30T09:52:02;30.60;;;18.10;;
22026;SDS011;11177;50.966;10.070;2024-01-30T09:54:32;41.47;;;24.23;;
22026;SDS011;11177;50.966;10.070;2024-01-30T09:57:02;40.90;;;25.50;;
22026;SDS011;11177;50.966;10.070;2024-01-30T09:59:30;36.85;;;22.33;;
22026;SDS011;11177;50.966;10.070;2024-01-30T10:01:57;39.33;;;22.63;;
22026;SDS011;11177;50.966;10.070;2024-01-30T10:04:25;41.25;;;23.48;;
22026;SDS011;11177;50.966;10.070;2024-01-30T10:06:53;41.45;;;23.10;;
22026;SDS011;11177;50.966;10.070;2024-01-30T10:09:20;34.40;;;19.77;;
22026;SDS011;11177;50.966;10.070;2024-01-30T10:11:49;29.08;;;17.45;;
22026;SDS011;11177;50.966;10.070;2024-01-30T10:14:20;26.02;;;15.07;;
22026;SDS011;11177;50.966;10.070;2024-01-30T10:16:48;24.88;;;14.23;;
22026;SDS011;11177;50.966;10.070;2024-01-30T10:19:15;27.08;;;14.82;;
22026;SDS011;11177;50.966;10.070;2024-01-30T10:21:43;25.25;;;15.05;;
22026;SDS011;11177;50.966;10.070;2024-01-30T10:24:10;24.98;;;14.93;;
22026;SDS011;11177;50.966;10.070;2024-01-30T10:26:43;24.67;;;14.82;;
22026;SDS011;11177;50.966;10.070;2024-01-30T10:29:16;24.63;;;14.50;;
22026;SDS011;11177;50.966;10.070;2024-01-30T10:32:02;25.38;;;14.43;;
22026;SDS011;11177;50.966;10.070;2024-01-30T10:34:31;27.70;;;14.30;;
22026;SDS011;11177;50.966;10.070;2024-01-30T10:37:00;24.17;;;14.05;;
22026;SDS011;11177;50.966;10.070;2024-01-30T10:39:45;30.08;;;17.02;;
22026;SDS011;11177;50.966;10.070;2024-01-30T10:42:14;30.58;;;17.10;;
22026;SDS011;11177;50.966;10.070;2024-01-30T10:44:50;25.27;;;14.68;;
22026;SDS011;11177;50.966;10.070;2024-01-30T10:47:49;26.17;;;12.75;;
22026;SDS011;11177;50.966;10.070;2024-01-30T10:50:16;17.25;;;11.23;;
22026;SDS011;11177;50.966;10.070;2024-01-30T10:52:44;17.13;;;9.85;;
22026;SDS011;11177;50.966;10.070;2024-01-30T10:55:12;17.10;;;10.25;;
22026;SDS011;11177;50.966;10.070;2024-01-30T10:57:41;17.92;;;10.30;;
22026;SDS011;11177;50.966;10.070;2024-01-30T11:00:09;17.10;;;9.45;;
22026;SDS011;11177;50.966;10.070;2024-01-30T11:02:46;14.27;;;8.52;;
22026;SDS011;11177;50.966;10.070;2024-01-30T11:05:14;14.93;;;9.07;;
22026;SDS011;11177;50.966;10.070;2024-01-30T11:07:43;13.75;;;8.98;;
22026;SDS011;11177;50.966;10.070;2024-01-30T11:10:11;13.10;;;8.15;;
22026;SDS011;11177;50.966;10.070;2024-01-30T11:12:42;14.43;;;8.50;;
22026;SDS011;11177;50.966;10.070;2024-01-30T11:15:14;13.07;;;8.70;;
22026;SDS011;11177;50.966;10.070;2024-01-30T11:17:52;14.48;;;8.73;;
22026;SDS011;11177;50.966;10.070;2024-01-30T11:20:20;14.15;;;8.38;;
22026;SDS011;11177;50.966;10.070;2024-01-30T11:23:02;11.43;;;7.80;;
22026;SDS011;11177;50.966;10.070;2024-01-30T11:25:33;14.07;;;7.65;;
22026;SDS011;11177;50.966;10.070;2024-01-30T11:28:01;13.23;;;8.02;;
22026;SDS011;11177;50.966;10.070;2024-01-30T11:30:32;14.55;;;7.97;;
22026;SDS011;11177;50.966;10.070;2024-01-30T11:33:04;11.43;;;7.90;;
22026;SDS011;11177;50.966;10.070;2024-01-30T11:35:35;11.50;;;7.30;;
22026;SDS011;11177;50.966;10.070;2024-01-30T11:38:05;12.20;;;7.05;;
22026;SDS011;11177;50.966;10.070;2024-01-30T11:40:35;11.55;;;7.50;;
22026;SDS011;11177;50.966;10.070;2024-01-30T11:43:06;16.05;;;7.88;;
22026;SDS011;11177;50.966;10.070;2024-01-30T11:45:35;12.63;;;7.40;;
22026;SDS011;11177;50.966;10.070;2024-01-30T11:48:04;11.02;;;7.25;;
22026;SDS011;11177;50.966;10.070;2024-01-30T11:50:33;12.60;;;7.13;;
22026;SDS011;11177;50.966;10.070;2024-01-30T11:53:01;11.63;;;7.28;;
22026;SDS011;11177;50.966;10.070;2024-01-30T11:55:29;13.55;;;7.43;;
22026;SDS011;11177;50.966;10.070;2024-01-30T11:58:01;10.25;;;7.05;;
22026;SDS011;11177;50.966;10.070;2024-01-30T12:00:35;12.27;;;7.53;;
22026;SDS011;11177;50.966;10.070;2024-01-30T12:03:04;13.90;;;7.70;;
22026;SDS011;11177;50.966;10.070;2024-01-30T12:05:34;12.45;;;7.47;;
22026;SDS011;11177;50.966;10.070;2024-01-30T12:08:02;11.98;;;7.43;;
22026;SDS011;11177;50.966;10.070;2024-01-30T12:10:31;14.00;;;8.02;;
22026;SDS011;11177;50.966;10.070;2024-01-30T12:12:59;14.35;;;7.82;;
22026;SDS011;11177;50.966;10.070;2024-01-30T12:15:27;14.45;;;8.55;;
22026;SDS011;11177;50.966;10.070;2024-01-30T12:18:03;14.50;;;7.88;;
22026;SDS011;11177;50.966;10.070;2024-01-30T12:20:59;19.65;;;9.43;;
22026;SDS011;11177;50.966;10.070;2024-01-30T12:23:27;14.25;;;8.60;;
22026;SDS011;11177;50.966;10.070;2024-01-30T12:25:54;12.07;;;7.68;;
22026;SDS011;11177;50.966;10.070;2024-01-30T12:28:21;14.40;;;8.85;;
22026;SDS011;11177;50.966;10.070;2024-01-30T12:30:48;14.80;;;9.32;;
22026;SDS011;11177;50.966;10.070;2024-01-30T12:33:18;15.55;;;9.52;;
22026;SDS011;11177;50.966;10.070;2024-01-30T12:35:45;17.77;;;9.68;;
22026;SDS011;11177;50.966;10.070;2024-01-30T12:38:27;14.95;;;8.90;;
22026;SDS011;11177;50.966;10.070;2024-01-30T12:40:54;13.30;;;8.82;;
22026;SDS011;11177;50.966;10.070;2024-01-30T12:43:22;12.48;;;8.07;;
22026;SDS011;11177;50.966;10.070;2024-01-30T12:46:03;11.75;;;7.72;;
22026;SDS011;11177;50.966;10.070;2024-01-30T12:48:30;12.77;;;8.10;;
22026;SDS011;11177;50.966;10.070;2024-01-30T12:50:57;17.10;;;8.13;;
22026;SDS011;11177;50.966;10.070;2024-01-30T12:53:25;14.40;;;8.40;;
22026;SDS011;11177;50.966;10.070;2024-01-30T12:55:52;13.13;;;8.52;;
22026;SDS011;11177;50.966;10.070;2024-01-30T12:58:21;17.10;;;8.30;;
22026;SDS011;11177;50.966;10.070;2024-01-30T13:00:48;14.48;;;8.05;;
22026;SDS011;11177;50.966;10.070;2024-01-30T13:03:15;12.70;;;7.75;;
22026;SDS011;11177;50.966;10.070;2024-01-30T13:05:42;13.10;;;8.43;;
22026;SDS011;11177;50.966;10.070;2024-01-30T13:08:09;18.58;;;8.82;;
22026;SDS011;11177;50.966;10.070;2024-01-30T13:10:36;13.32;;;8.32;;
22026;SDS011;11177;50.966;10.070;2024-01-30T13:13:03;15.25;;;8.82;;
22026;SDS011;11177;50.966;10.070;2024-01-30T13:15:31;13.65;;;9.07;;
22026;SDS011;11177;50.966;10.070;2024-01-30T13:17:57;14.52;;;9.60;;
22026;SDS011;11177;50.966;10.070;2024-01-30T13:20:25;19.02;;;9.15;;
22026;SDS011;11177;50.966;10.070;2024-01-30T13:22:52;19.70;;;13.10;;
22026;SDS011;11177;50.966;10.070;2024-01-30T13:25:19;17.17;;;10.88;;
22026;SDS011;11177;50.966;10.070;2024-01-30T13:27:46;14.52;;;8.50;;
22026;SDS011;11177;50.966;10.070;2024-01-30T13:30:13;15.10;;;9.20;;
22026;SDS011;11177;50.966;10.070;2024-01-30T13:32:40;18.40;;;11.15;;
22026;SDS011;11177;50.966;10.070;2024-01-30T13:35:10;17.05;;;9.73;;
22026;SDS011;11177;50.966;10.070;2024-01-30T13:37:37;19.25;;;8.88;;
22026;SDS011;11177;50.966;10.070;2024-01-30T13:40:05;15.88;;;9.57;;
22026;SDS011;11177;50.966;10.070;2024-01-30T13:42:39;13.52;;;8.52;;
22026;SDS011;11177;50.966;10.070;2024-01-30T13:45:06;14.73;;;9.10;;
22026;SDS011;11177;50.966;10.070;2024-01-30T13:47:37;13.75;;;8.95;;
22026;SDS011;11177;50.966;10.070;2024-01-30T13:50:04;13.43;;;8.90;;
22026;SDS011;11177;50.966;10.070;2024-01-30T13:52:32;16.27;;;9.13;;
22026;SDS011;11177;50.966;10.070;2024-01-30T13:55:10;12.57;;;8.65;;
22026;SDS011;11177;50.966;10.070;2024-01-30T13:57:37;17.25;;;9.90;;
22026;SDS011;11177;50.966;10.070;2024-01-30T14:00:05;16.20;;;9.98;;
22026;SDS011;11177;50.966;10.070;2024-01-30T14:02:33;17.38;;;10.77;;
22026;SDS011;11177;50.966;10.070;2024-01-30T14:05:00;13.77;;;9.38;;
22026;SDS011;11177;50.966;10.070;2024-01-30T14:07:27;14.55;;;9.25;;
22026;SDS011;11177;50.966;10.070;2024-01-30T14:09:55;13.38;;;9.75;;
22026;SDS011;11177;50.966;10.070;2024-01-30T14:12:22;12.18;;;9.05;;
22026;SDS011;11177;50.966;10.070;2024-01-30T14:14:49;13.73;;;8.60;;
22026;SDS011;11177;50.966;10.070;2024-01-30T14:17:15;13.50;;;8.18;;
22026;SDS011;11177;50.966;10.070;2024-01-30T14:19:42;11.85;;;8.57;;
22026;SDS011;11177;50.966;10.070;2024-01-30T14:22:09;13.05;;;8.57;;
22026;SDS011;11177;50.966;10.070;2024-01-30T14:24:36;15.35;;;8.93;;
22026;SDS011;11177;50.966;10.070;2024-01-30T14:27:04;13.93;;;8.43;;